sensor_id;sensor_type;location;lat;lon;timestamp;temperature;humidity
11855;DHT22;5987;53.140;8.904;2023-03-01T00:00:28;-0.30;99.90
11855;DHT22;5987;53.140;8.904;2023-03-01T00:03:32;-0.40;99.90
11855;DHT22;5987;53.140;8.904;2023-03-01T00:06:37;-0.50;99.90
11855;DHT22;5987;53.140;8.904;2023-03-01T00:09:41;-0.60;99.90
11855;DHT22;5987;53.140;8.904;2023-03-01T00:12:49;-0.60;99.90
11855;DHT22;5987;53.140;8.904;2023-03-01T00:15:53;-0.80;99.90
11855;DHT22;5987;53.140;8.904;2023-03-01T00:18:57;-0.80;99.90
11855;DHT22;5987;53.140;8.904;2023-03-01T00:22:01;-0.80;99.90
11855;DHT22;5987;53.140;8.904;2023-03-01T00:25:06;-0.80;99.90
11855;DHT22;5987;53.140;8.904;2023-03-01T00:28:12;-0.80;99.90
11855;DHT22;5987;53.140;8.904;2023-03-01T00:31:18;-0.80;99.90
11855;DHT22;5987;53.140;8.904;2023-03-01T00:34:23;-0.80;99.90
11855;DHT22;5987;53.140;8.904;2023-03-01T00:37:27;-0.70;99.90
11855;DHT22;5987;53.140;8.904;2023-03-01T00:40:33;-0.70;99.90
11855;DHT22;5987;53.140;8.904;2023-03-01T00:43:40;-0.70;99.90
11855;DHT22;5987;53.140;8.904;2023-03-01T00:46:43;-0.70;99.90
11855;DHT22;5987;53.140;8.904;2023-03-01T00:49:48;-0.80;99.90
11855;DHT22;5987;53.140;8.904;2023-03-01T00:52:53;-0.80;99.90
11855;DHT22;5987;53.140;8.904;2023-03-01T00:55:57;-0.80;99.90
11855;DHT22;5987;53.140;8.904;2023-03-01T00:59:02;-0.80;99.90
11855;DHT22;5987;53.140;8.904;2023-03-01T01:02:06;-0.80;99.90
11855;DHT22;5987;53.140;8.904;2023-03-01T01:05:10;-0.90;99.90
11855;DHT22;5987;53.140;8.904;2023-03-01T01:08:15;-0.90;99.90
11855;DHT22;5987;53.140;8.904;2023-03-01T01:11:19;-1.10;99.90
11855;DHT22;5987;53.140;8.904;2023-03-01T01:14:25;-1.00;99.90
11855;DHT22;5987;53.140;8.904;2023-03-01T01:17:29;-1.00;99.90
11855;DHT22;5987;53.140;8.904;2023-03-01T01:20:35;-1.00;99.90
11855;DHT22;5987;53.140;8.904;2023-03-01T01:23:40;-1.10;99.90
11855;DHT22;5987;53.140;8.904;2023-03-01T01:26:45;-1.10;99.90
11855;DHT22;5987;53.140;8.904;2023-03-01T01:29:52;-1.10;99.90
11855;DHT22;5987;53.140;8.904;2023-03-01T01:32:56;-1.20;99.90
11855;DHT22;5987;53.140;8.904;2023-03-01T01:36:00;-1.10;99.90
11855;DHT22;5987;53.140;8.904;2023-03-01T01:39:05;-1.20;99.90
11855;DHT22;5987;53.140;8.904;2023-03-01T01:42:13;-1.30;99.90
11855;DHT22;5987;53.140;8.904;2023-03-01T01:45:30;-1.30;99.90
11855;DHT22;5987;53.140;8.904;2023-03-01T01:48:40;-1.20;99.90
11855;DHT22;5987;53.140;8.904;2023-03-01T01:51:51;-1.20;99.90
11855;DHT22;5987;53.140;8.904;2023-03-01T01:55:05;-1.20;99.90
11855;DHT22;5987;53.140;8.904;2023-03-01T01:58:15;-1.20;99.90
11855;DHT22;5987;53.140;8.904;2023-03-01T02:01:23;-1.20;99.90
11855;DHT22;5987;53.140;8.904;2023-03-01T02:04:28;-1.20;99.90
11855;DHT22;5987;53.140;8.904;2023-03-01T02:07:33;-1.20;99.90
11855;DHT22;5987;53.140;8.904;2023-03-01T02:10:37;-1.30;99.90
11855;DHT22;5987;53.140;8.904;2023-03-01T02:13:42;-1.30;99.90
11855;DHT22;5987;53.140;8.904;2023-03-01T02:16:49;-1.30;99.90
11855;DHT22;5987;53.140;8.904;2023-03-01T02:20:04;-1.30;99.90
11855;DHT22;5987;53.140;8.904;2023-03-01T02:23:15;-1.30;99.90
11855;DHT22;5987;53.140;8.904;2023-03-01T02:26:25;-1.30;99.90
11855;DHT22;5987;53.140;8.904;2023-03-01T02:29:38;-1.40;99.90
11855;DHT22;5987;53.140;8.904;2023-03-01T02:32:46;-1.40;99.90
11855;DHT22;5987;53.140;8.904;2023-03-01T02:35:53;-1.40;99.90
11855;DHT22;5987;53.140;8.904;2023-03-01T02:39:00;-1.30;99.90
11855;DHT22;5987;53.140;8.904;2023-03-01T02:42:11;-1.50;99.90
11855;DHT22;5987;53.140;8.904;2023-03-01T02:45:19;-1.50;99.90
11855;DHT22;5987;53.140;8.904;2023-03-01T02:48:23;-1.50;99.90
11855;DHT22;5987;53.140;8.904;2023-03-01T02:51:41;-1.50;99.90
11855;DHT22;5987;53.140;8.904;2023-03-01T02:54:54;-1.50;99.90
11855;DHT22;5987;53.140;8.904;2023-03-01T02:58:02;-1.50;99.90
11855;DHT22;5987;53.140;8.904;2023-03-01T03:01:08;-1.50;99.90
11855;DHT22;5987;53.140;8.904;2023-03-01T03:04:14;-1.40;99.90
11855;DHT22;5987;53.140;8.904;2023-03-01T03:07:20;-1.40;99.90
11855;DHT22;5987;53.140;8.904;2023-03-01T03:10:25;-1.30;99.90
11855;DHT22;5987;53.140;8.904;2023-03-01T03:13:31;-1.30;99.90
11855;DHT22;5987;53.140;8.904;2023-03-01T03:16:36;-1.20;99.90
11855;DHT22;5987;53.140;8.904;2023-03-01T03:19:39;-1.30;99.90
11855;DHT22;5987;53.140;8.904;2023-03-01T03:22:43;-1.40;99.90
11855;DHT22;5987;53.140;8.904;2023-03-01T03:25:48;-1.40;99.90
11855;DHT22;5987;53.140;8.904;2023-03-01T03:28:53;-1.40;99.90
11855;DHT22;5987;53.140;8.904;2023-03-01T03:31:58;-1.40;99.90
11855;DHT22;5987;53.140;8.904;2023-03-01T03:35:02;-1.60;99.90
11855;DHT22;5987;53.140;8.904;2023-03-01T03:38:12;-1.70;99.90
11855;DHT22;5987;53.140;8.904;2023-03-01T03:41:21;-1.70;99.90
11855;DHT22;5987;53.140;8.904;2023-03-01T03:44:24;-1.70;99.90
11855;DHT22;5987;53.140;8.904;2023-03-01T03:47:29;-1.70;99.90
11855;DHT22;5987;53.140;8.904;2023-03-01T03:50:33;-1.60;99.90
11855;DHT22;5987;53.140;8.904;2023-03-01T03:53:37;-1.60;99.90
11855;DHT22;5987;53.140;8.904;2023-03-01T03:56:41;-1.60;99.90
11855;DHT22;5987;53.140;8.904;2023-03-01T03:59:46;-1.60;99.90
11855;DHT22;5987;53.140;8.904;2023-03-01T04:02:51;-1.50;99.90
11855;DHT22;5987;53.140;8.904;2023-03-01T04:05:59;-1.50;99.90
11855;DHT22;5987;53.140;8.904;2023-03-01T04:09:03;-1.60;99.90
11855;DHT22;5987;53.140;8.904;2023-03-01T04:12:06;-1.60;99.90
11855;DHT22;5987;53.140;8.904;2023-03-01T04:15:11;-1.60;99.90
11855;DHT22;5987;53.140;8.904;2023-03-01T04:18:21;-1.50;99.90
11855;DHT22;5987;53.140;8.904;2023-03-01T04:21:26;-1.50;99.90
11855;DHT22;5987;53.140;8.904;2023-03-01T04:24:30;-1.70;99.90
11855;DHT22;5987;53.140;8.904;2023-03-01T04:27:34;-1.70;99.90
11855;DHT22;5987;53.140;8.904;2023-03-01T04:30:38;-1.70;99.90
11855;DHT22;5987;53.140;8.904;2023-03-01T04:33:45;-1.80;99.90
11855;DHT22;5987;53.140;8.904;2023-03-01T04:36:51;-1.80;99.90
11855;DHT22;5987;53.140;8.904;2023-03-01T04:39:54;-1.80;99.90
11855;DHT22;5987;53.140;8.904;2023-03-01T04:42:58;-1.80;99.90
11855;DHT22;5987;53.140;8.904;2023-03-01T04:46:02;-1.80;99.90
11855;DHT22;5987;53.140;8.904;2023-03-01T04:49:11;-1.80;99.90
11855;DHT22;5987;53.140;8.904;2023-03-01T04:52:15;-1.70;99.90
11855;DHT22;5987;53.140;8.904;2023-03-01T04:55:19;-1.70;99.90
11855;DHT22;5987;53.140;8.904;2023-03-01T04:58:22;-1.80;99.90
11855;DHT22;5987;53.140;8.904;2023-03-01T05:01:27;-1.80;99.90
11855;DHT22;5987;53.140;8.904;2023-03-01T05:04:32;-1.80;99.90
11855;DHT22;5987;53.140;8.904;2023-03-01T05:07:35;-1.80;99.90
11855;DHT22;5987;53.140;8.904;2023-03-01T05:10:39;-1.80;99.90
11855;DHT22;5987;53.140;8.904;2023-03-01T05:13:43;-1.80;99.90
11855;DHT22;5987;53.140;8.904;2023-03-01T05:16:47;-1.90;99.90
11855;DHT22;5987;53.140;8.904;2023-03-01T05:19:52;-1.90;99.90
11855;DHT22;5987;53.140;8.904;2023-03-01T05:22:59;-1.90;99.90
11855;DHT22;5987;53.140;8.904;2023-03-01T05:26:07;-2.00;99.90
11855;DHT22;5987;53.140;8.904;2023-03-01T05:29:30;-2.00;99.90
11855;DHT22;5987;53.140;8.904;2023-03-01T05:32:36;-1.90;99.90
11855;DHT22;5987;53.140;8.904;2023-03-01T05:35:43;-1.80;99.90
11855;DHT22;5987;53.140;8.904;2023-03-01T05:38:47;-1.80;99.90
11855;DHT22;5987;53.140;8.904;2023-03-01T05:41:52;-1.70;99.90
11855;DHT22;5987;53.140;8.904;2023-03-01T05:44:57;-1.70;99.90
11855;DHT22;5987;53.140;8.904;2023-03-01T05:48:00;-1.70;99.90
11855;DHT22;5987;53.140;8.904;2023-03-01T05:51:06;-1.70;99.90
11855;DHT22;5987;53.140;8.904;2023-03-01T05:54:10;-1.70;99.90
11855;DHT22;5987;53.140;8.904;2023-03-01T05:57:14;-1.80;99.90
11855;DHT22;5987;53.140;8.904;2023-03-01T06:00:19;-1.90;99.90
11855;DHT22;5987;53.140;8.904;2023-03-01T06:03:25;-1.70;99.90
11855;DHT22;5987;53.140;8.904;2023-03-01T06:06:33;-1.60;99.90
11855;DHT22;5987;53.140;8.904;2023-03-01T06:09:39;-1.50;99.90
11855;DHT22;5987;53.140;8.904;2023-03-01T06:12:43;-1.60;99.90
11855;DHT22;5987;53.140;8.904;2023-03-01T06:15:47;-1.70;99.90
11855;DHT22;5987;53.140;8.904;2023-03-01T06:18:50;-1.70;99.90
11855;DHT22;5987;53.140;8.904;2023-03-01T06:21:55;-1.60;99.90
11855;DHT22;5987;53.140;8.904;2023-03-01T06:25:01;-1.50;99.90
11855;DHT22;5987;53.140;8.904;2023-03-01T06:28:06;-1.40;99.90
11855;DHT22;5987;53.140;8.904;2023-03-01T06:31:09;-1.40;99.90
11855;DHT22;5987;53.140;8.904;2023-03-01T06:34:13;-1.40;99.90
11855;DHT22;5987;53.140;8.904;2023-03-01T06:37:18;-1.50;99.90
11855;DHT22;5987;53.140;8.904;2023-03-01T06:40:22;-1.50;99.90
11855;DHT22;5987;53.140;8.904;2023-03-01T06:43:26;-1.30;99.90
11855;DHT22;5987;53.140;8.904;2023-03-01T06:46:30;-1.40;99.90
11855;DHT22;5987;53.140;8.904;2023-03-01T06:49:34;-1.40;99.90
11855;DHT22;5987;53.140;8.904;2023-03-01T06:52:39;-1.30;99.90
11855;DHT22;5987;53.140;8.904;2023-03-01T06:55:43;-1.20;99.90
11855;DHT22;5987;53.140;8.904;2023-03-01T06:58:46;-1.20;99.90
11855;DHT22;5987;53.140;8.904;2023-03-01T07:01:50;-1.10;99.90
11855;DHT22;5987;53.140;8.904;2023-03-01T07:04:54;-1.10;99.90
11855;DHT22;5987;53.140;8.904;2023-03-01T07:07:59;-1.00;99.90
11855;DHT22;5987;53.140;8.904;2023-03-01T07:11:02;-0.90;99.90
11855;DHT22;5987;53.140;8.904;2023-03-01T07:14:07;-0.90;99.90
11855;DHT22;5987;53.140;8.904;2023-03-01T07:17:11;-0.90;99.90
11855;DHT22;5987;53.140;8.904;2023-03-01T07:20:15;-0.50;99.90
11855;DHT22;5987;53.140;8.904;2023-03-01T07:23:20;-0.30;99.90
11855;DHT22;5987;53.140;8.904;2023-03-01T07:26:24;-0.40;99.90
11855;DHT22;5987;53.140;8.904;2023-03-01T07:29:28;-0.30;99.90
11855;DHT22;5987;53.140;8.904;2023-03-01T07:32:31;-0.30;99.90
11855;DHT22;5987;53.140;8.904;2023-03-01T07:35:35;-0.10;99.90
11855;DHT22;5987;53.140;8.904;2023-03-01T07:38:40;0.10;99.90
11855;DHT22;5987;53.140;8.904;2023-03-01T07:41:44;0.20;99.90
11855;DHT22;5987;53.140;8.904;2023-03-01T07:44:48;0.40;99.90
11855;DHT22;5987;53.140;8.904;2023-03-01T07:47:53;0.50;99.90
11855;DHT22;5987;53.140;8.904;2023-03-01T07:50:58;0.60;99.90
11855;DHT22;5987;53.140;8.904;2023-03-01T07:54:04;0.70;99.90
11855;DHT22;5987;53.140;8.904;2023-03-01T07:57:08;0.80;99.90
11855;DHT22;5987;53.140;8.904;2023-03-01T08:00:13;0.90;99.90
11855;DHT22;5987;53.140;8.904;2023-03-01T08:03:17;1.00;99.90
11855;DHT22;5987;53.140;8.904;2023-03-01T08:06:20;0.90;99.90
11855;DHT22;5987;53.140;8.904;2023-03-01T08:09:26;1.00;99.90
11855;DHT22;5987;53.140;8.904;2023-03-01T08:12:29;1.10;99.90
11855;DHT22;5987;53.140;8.904;2023-03-01T08:15:44;1.40;99.90
11855;DHT22;5987;53.140;8.904;2023-03-01T08:18:48;1.50;99.90
11855;DHT22;5987;53.140;8.904;2023-03-01T08:21:52;1.60;99.90
11855;DHT22;5987;53.140;8.904;2023-03-01T08:24:57;1.80;99.90
11855;DHT22;5987;53.140;8.904;2023-03-01T08:28:01;2.00;99.90
11855;DHT22;5987;53.140;8.904;2023-03-01T08:31:13;2.20;99.90
11855;DHT22;5987;53.140;8.904;2023-03-01T08:34:19;2.30;99.90
11855;DHT22;5987;53.140;8.904;2023-03-01T08:37:23;2.50;99.90
11855;DHT22;5987;53.140;8.904;2023-03-01T08:40:28;2.50;99.90
11855;DHT22;5987;53.140;8.904;2023-03-01T08:43:32;2.50;99.90
11855;DHT22;5987;53.140;8.904;2023-03-01T08:46:38;2.70;99.90
11855;DHT22;5987;53.140;8.904;2023-03-01T08:49:43;2.90;99.90
11855;DHT22;5987;53.140;8.904;2023-03-01T08:52:47;3.20;99.90
11855;DHT22;5987;53.140;8.904;2023-03-01T08:55:52;3.10;99.90
11855;DHT22;5987;53.140;8.904;2023-03-01T08:58:57;3.10;99.90
11855;DHT22;5987;53.140;8.904;2023-03-01T09:02:01;3.00;99.90
11855;DHT22;5987;53.140;8.904;2023-03-01T09:05:05;3.30;99.90
11855;DHT22;5987;53.140;8.904;2023-03-01T09:08:09;3.40;99.90
11855;DHT22;5987;53.140;8.904;2023-03-01T09:11:16;3.60;99.90
11855;DHT22;5987;53.140;8.904;2023-03-01T09:14:22;3.80;99.90
11855;DHT22;5987;53.140;8.904;2023-03-01T09:17:26;3.80;99.90
11855;DHT22;5987;53.140;8.904;2023-03-01T09:20:31;4.00;99.90
11855;DHT22;5987;53.140;8.904;2023-03-01T09:23:35;4.30;99.90
11855;DHT22;5987;53.140;8.904;2023-03-01T09:26:43;4.50;99.90
11855;DHT22;5987;53.140;8.904;2023-03-01T09:29:50;4.20;99.90
11855;DHT22;5987;53.140;8.904;2023-03-01T09:32:56;4.30;99.90
11855;DHT22;5987;53.140;8.904;2023-03-01T09:36:01;4.50;99.90
11855;DHT22;5987;53.140;8.904;2023-03-01T09:39:07;4.60;99.90
11855;DHT22;5987;53.140;8.904;2023-03-01T09:42:13;4.70;99.90
11855;DHT22;5987;53.140;8.904;2023-03-01T09:45:26;4.70;99.90
11855;DHT22;5987;53.140;8.904;2023-03-01T09:48:38;4.80;99.90
11855;DHT22;5987;53.140;8.904;2023-03-01T09:51:55;4.90;99.90
11855;DHT22;5987;53.140;8.904;2023-03-01T09:55:09;5.10;99.90
11855;DHT22;5987;53.140;8.904;2023-03-01T09:58:37;5.10;99.90
11855;DHT22;5987;53.140;8.904;2023-03-01T10:01:56;5.10;99.90
11855;DHT22;5987;53.140;8.904;2023-03-01T10:05:14;5.20;99.90
11855;DHT22;5987;53.140;8.904;2023-03-01T10:08:41;5.40;99.90
11855;DHT22;5987;53.140;8.904;2023-03-01T10:11:53;5.60;99.90
11855;DHT22;5987;53.140;8.904;2023-03-01T10:15:04;5.60;99.90
11855;DHT22;5987;53.140;8.904;2023-03-01T10:18:16;5.70;99.90
11855;DHT22;5987;53.140;8.904;2023-03-01T10:21:22;5.70;99.90
11855;DHT22;5987;53.140;8.904;2023-03-01T10:24:35;5.90;99.90
11855;DHT22;5987;53.140;8.904;2023-03-01T10:27:46;6.20;99.90
11855;DHT22;5987;53.140;8.904;2023-03-01T10:30:57;6.30;99.90
11855;DHT22;5987;53.140;8.904;2023-03-01T10:34:02;6.40;99.90
11855;DHT22;5987;53.140;8.904;2023-03-01T10:37:13;6.30;99.90
11855;DHT22;5987;53.140;8.904;2023-03-01T10:40:20;6.20;99.90
11855;DHT22;5987;53.140;8.904;2023-03-01T10:43:25;6.30;99.90
11855;DHT22;5987;53.140;8.904;2023-03-01T10:46:36;6.30;99.90
11855;DHT22;5987;53.140;8.904;2023-03-01T10:49:52;6.40;99.90
11855;DHT22;5987;53.140;8.904;2023-03-01T10:53:42;6.50;99.90
11855;DHT22;5987;53.140;8.904;2023-03-01T10:56:53;6.70;99.90
11855;DHT22;5987;53.140;8.904;2023-03-01T11:00:17;6.70;99.90
11855;DHT22;5987;53.140;8.904;2023-03-01T11:03:28;6.80;99.90
11855;DHT22;5987;53.140;8.904;2023-03-01T11:06:34;6.90;99.90
11855;DHT22;5987;53.140;8.904;2023-03-01T11:09:38;7.10;99.90
11855;DHT22;5987;53.140;8.904;2023-03-01T11:12:42;7.10;99.90
11855;DHT22;5987;53.140;8.904;2023-03-01T11:15:58;7.30;99.90
11855;DHT22;5987;53.140;8.904;2023-03-01T11:19:20;7.40;99.90
11855;DHT22;5987;53.140;8.904;2023-03-01T11:22:25;7.50;99.90
11855;DHT22;5987;53.140;8.904;2023-03-01T11:25:34;7.60;99.90
11855;DHT22;5987;53.140;8.904;2023-03-01T11:28:42;7.70;99.90
11855;DHT22;5987;53.140;8.904;2023-03-01T11:31:48;7.90;99.90
11855;DHT22;5987;53.140;8.904;2023-03-01T11:35:05;8.00;99.90
11855;DHT22;5987;53.140;8.904;2023-03-01T11:38:22;8.10;99.90
11855;DHT22;5987;53.140;8.904;2023-03-01T11:41:31;8.10;99.90
11855;DHT22;5987;53.140;8.904;2023-03-01T11:44:38;8.00;99.90
11855;DHT22;5987;53.140;8.904;2023-03-01T11:48:13;7.90;99.90
11855;DHT22;5987;53.140;8.904;2023-03-01T11:52:00;8.00;99.90
11855;DHT22;5987;53.140;8.904;2023-03-01T11:55:21;7.90;99.90
11855;DHT22;5987;53.140;8.904;2023-03-01T11:58:49;7.90;99.90
11855;DHT22;5987;53.140;8.904;2023-03-01T12:06:30;7.80;99.90
11855;DHT22;5987;53.140;8.904;2023-03-01T12:09:58;8.10;99.90
11855;DHT22;5987;53.140;8.904;2023-03-01T12:13:40;8.10;99.90
11855;DHT22;5987;53.140;8.904;2023-03-01T12:17:15;8.20;99.90
11855;DHT22;5987;53.140;8.904;2023-03-01T12:20:34;8.00;99.90
11855;DHT22;5987;53.140;8.904;2023-03-01T12:24:10;7.90;99.90
11855;DHT22;5987;53.140;8.904;2023-03-01T12:28:08;8.00;99.90
11855;DHT22;5987;53.140;8.904;2023-03-01T12:39:17;8.00;99.90
11855;DHT22;5987;53.140;8.904;2023-03-01T12:42:43;8.10;99.90
11855;DHT22;5987;53.140;8.904;2023-03-01T12:49:40;8.20;99.90
11855;DHT22;5987;53.140;8.904;2023-03-01T12:52:51;8.20;99.90
11855;DHT22;5987;53.140;8.904;2023-03-01T12:55:59;8.20;99.90
11855;DHT22;5987;53.140;8.904;2023-03-01T12:59:12;8.30;99.90
11855;DHT22;5987;53.140;8.904;2023-03-01T13:02:24;8.30;99.90
11855;DHT22;5987;53.140;8.904;2023-03-01T13:05:40;8.40;99.90
11855;DHT22;5987;53.140;8.904;2023-03-01T13:09:00;8.60;99.90
11855;DHT22;5987;53.140;8.904;2023-03-01T13:16:20;8.50;99.90
11855;DHT22;5987;53.140;8.904;2023-03-01T13:19:57;8.40;99.90
11855;DHT22;5987;53.140;8.904;2023-03-01T13:23:08;8.50;99.90
11855;DHT22;5987;53.140;8.904;2023-03-01T13:26:17;8.50;99.90
11855;DHT22;5987;53.140;8.904;2023-03-01T13:29:44;8.60;99.90
11855;DHT22;5987;53.140;8.904;2023-03-01T13:32:50;8.70;99.90
11855;DHT22;5987;53.140;8.904;2023-03-01T13:35:56;8.70;99.90
11855;DHT22;5987;53.140;8.904;2023-03-01T13:39:04;8.60;99.90
11855;DHT22;5987;53.140;8.904;2023-03-01T13:42:40;8.70;99.90
11855;DHT22;5987;53.140;8.904;2023-03-01T13:46:07;8.70;99.90
11855;DHT22;5987;53.140;8.904;2023-03-01T13:49:16;8.70;99.90
11855;DHT22;5987;53.140;8.904;2023-03-01T13:52:37;8.70;99.90
11855;DHT22;5987;53.140;8.904;2023-03-01T13:55:44;8.80;99.90
11855;DHT22;5987;53.140;8.904;2023-03-01T13:58:53;8.80;99.90
11855;DHT22;5987;53.140;8.904;2023-03-01T14:02:00;8.80;99.90
11855;DHT22;5987;53.140;8.904;2023-03-01T14:05:05;8.80;99.90
11855;DHT22;5987;53.140;8.904;2023-03-01T14:08:23;8.70;99.90
11855;DHT22;5987;53.140;8.904;2023-03-01T14:12:02;8.90;99.90
11855;DHT22;5987;53.140;8.904;2023-03-01T14:15:21;8.90;99.90
11855;DHT22;5987;53.140;8.904;2023-03-01T14:18:38;9.30;99.90
11855;DHT22;5987;53.140;8.904;2023-03-01T14:21:59;9.00;99.90
11855;DHT22;5987;53.140;8.904;2023-03-01T14:25:26;9.00;99.90
11855;DHT22;5987;53.140;8.904;2023-03-01T14:28:33;9.10;99.90
11855;DHT22;5987;53.140;8.904;2023-03-01T14:31:40;9.10;99.90
11855;DHT22;5987;53.140;8.904;2023-03-01T14:34:56;9.20;99.90
11855;DHT22;5987;53.140;8.904;2023-03-01T14:38:01;9.30;99.90
11855;DHT22;5987;53.140;8.904;2023-03-01T14:41:09;9.40;99.90
11855;DHT22;5987;53.140;8.904;2023-03-01T14:44:20;9.40;99.90
11855;DHT22;5987;53.140;8.904;2023-03-01T14:47:28;9.40;99.90
11855;DHT22;5987;53.140;8.904;2023-03-01T14:50:36;9.20;99.90
11855;DHT22;5987;53.140;8.904;2023-03-01T14:53:44;9.10;99.90
11855;DHT22;5987;53.140;8.904;2023-03-01T14:56:57;8.90;99.90
11855;DHT22;5987;53.140;8.904;2023-03-01T15:00:06;8.90;99.90
11855;DHT22;5987;53.140;8.904;2023-03-01T15:03:13;8.90;99.90
11855;DHT22;5987;53.140;8.904;2023-03-01T15:06:23;8.90;99.90
11855;DHT22;5987;53.140;8.904;2023-03-01T15:09:27;8.90;99.90
11855;DHT22;5987;53.140;8.904;2023-03-01T15:12:39;8.80;99.90
11855;DHT22;5987;53.140;8.904;2023-03-01T15:15:44;8.70;99.90
11855;DHT22;5987;53.140;8.904;2023-03-01T15:18:54;8.70;99.90
11855;DHT22;5987;53.140;8.904;2023-03-01T15:21:59;8.70;99.90
11855;DHT22;5987;53.140;8.904;2023-03-01T15:25:15;8.70;99.90
11855;DHT22;5987;53.140;8.904;2023-03-01T15:28:24;8.60;99.90
11855;DHT22;5987;53.140;8.904;2023-03-01T15:31:32;8.60;99.90
11855;DHT22;5987;53.140;8.904;2023-03-01T15:34:40;8.60;99.90
11855;DHT22;5987;53.140;8.904;2023-03-01T15:37:46;8.60;99.90
11855;DHT22;5987;53.140;8.904;2023-03-01T15:40:52;8.50;99.90
11855;DHT22;5987;53.140;8.904;2023-03-01T15:43:58;8.50;99.90
11855;DHT22;5987;53.140;8.904;2023-03-01T15:47:22;8.40;99.90
11855;DHT22;5987;53.140;8.904;2023-03-01T15:50:30;8.40;99.90
11855;DHT22;5987;53.140;8.904;2023-03-01T15:53:36;8.40;99.90
11855;DHT22;5987;53.140;8.904;2023-03-01T15:56:55;8.30;99.90
11855;DHT22;5987;53.140;8.904;2023-03-01T16:00:00;8.30;99.90
11855;DHT22;5987;53.140;8.904;2023-03-01T16:03:05;8.20;99.90
11855;DHT22;5987;53.140;8.904;2023-03-01T16:06:11;8.20;99.90
11855;DHT22;5987;53.140;8.904;2023-03-01T16:09:15;8.30;99.90
11855;DHT22;5987;53.140;8.904;2023-03-01T16:12:19;8.20;99.90
11855;DHT22;5987;53.140;8.904;2023-03-01T16:15:26;8.20;99.90
11855;DHT22;5987;53.140;8.904;2023-03-01T16:18:34;8.10;99.90
11855;DHT22;5987;53.140;8.904;2023-03-01T16:21:37;8.00;99.90
11855;DHT22;5987;53.140;8.904;2023-03-01T16:24:41;8.00;99.90
11855;DHT22;5987;53.140;8.904;2023-03-01T16:27:46;7.90;99.90
11855;DHT22;5987;53.140;8.904;2023-03-01T16:30:52;7.80;99.90
11855;DHT22;5987;53.140;8.904;2023-03-01T16:33:57;7.70;99.90
11855;DHT22;5987;53.140;8.904;2023-03-01T16:37:02;7.60;99.90
11855;DHT22;5987;53.140;8.904;2023-03-01T16:40:16;7.60;99.90
11855;DHT22;5987;53.140;8.904;2023-03-01T16:43:21;7.50;99.90
11855;DHT22;5987;53.140;8.904;2023-03-01T16:46:27;7.40;99.90
11855;DHT22;5987;53.140;8.904;2023-03-01T16:49:31;7.40;99.90
11855;DHT22;5987;53.140;8.904;2023-03-01T16:52:35;7.30;99.90
11855;DHT22;5987;53.140;8.904;2023-03-01T16:55:39;7.10;99.90
11855;DHT22;5987;53.140;8.904;2023-03-01T16:58:47;7.10;99.90
11855;DHT22;5987;53.140;8.904;2023-03-01T17:01:52;7.00;99.90
11855;DHT22;5987;53.140;8.904;2023-03-01T17:04:56;6.90;99.90
11855;DHT22;5987;53.140;8.904;2023-03-01T17:08:00;6.80;99.90
11855;DHT22;5987;53.140;8.904;2023-03-01T17:11:05;6.70;99.90
11855;DHT22;5987;53.140;8.904;2023-03-01T17:14:10;6.70;99.90
11855;DHT22;5987;53.140;8.904;2023-03-01T17:17:15;6.60;99.90
11855;DHT22;5987;53.140;8.904;2023-03-01T17:20:19;6.50;99.90
11855;DHT22;5987;53.140;8.904;2023-03-01T17:23:23;6.40;99.90
11855;DHT22;5987;53.140;8.904;2023-03-01T17:26:27;6.20;99.90
11855;DHT22;5987;53.140;8.904;2023-03-01T17:29:31;6.20;99.90
11855;DHT22;5987;53.140;8.904;2023-03-01T17:32:37;6.10;99.90
11855;DHT22;5987;53.140;8.904;2023-03-01T17:35:41;6.00;99.90
11855;DHT22;5987;53.140;8.904;2023-03-01T17:38:48;5.90;99.90
11855;DHT22;5987;53.140;8.904;2023-03-01T17:41:53;5.80;99.90
11855;DHT22;5987;53.140;8.904;2023-03-01T17:44:57;5.70;99.90
11855;DHT22;5987;53.140;8.904;2023-03-01T17:48:03;5.70;99.90
11855;DHT22;5987;53.140;8.904;2023-03-01T17:51:10;5.60;99.90
11855;DHT22;5987;53.140;8.904;2023-03-01T17:54:14;5.50;99.90
11855;DHT22;5987;53.140;8.904;2023-03-01T17:57:18;5.50;99.90
11855;DHT22;5987;53.140;8.904;2023-03-01T18:00:22;5.50;99.90
11855;DHT22;5987;53.140;8.904;2023-03-01T18:03:28;5.40;99.90
11855;DHT22;5987;53.140;8.904;2023-03-01T18:06:31;5.40;99.90
11855;DHT22;5987;53.140;8.904;2023-03-01T18:09:35;5.20;99.90
11855;DHT22;5987;53.140;8.904;2023-03-01T18:12:39;5.20;99.90
11855;DHT22;5987;53.140;8.904;2023-03-01T18:15:43;5.10;99.90
11855;DHT22;5987;53.140;8.904;2023-03-01T18:18:52;4.90;99.90
11855;DHT22;5987;53.140;8.904;2023-03-01T18:21:57;4.80;99.90
11855;DHT22;5987;53.140;8.904;2023-03-01T18:25:01;4.70;99.90
11855;DHT22;5987;53.140;8.904;2023-03-01T18:28:06;4.50;99.90
11855;DHT22;5987;53.140;8.904;2023-03-01T18:31:09;4.50;99.90
11855;DHT22;5987;53.140;8.904;2023-03-01T18:34:15;4.40;99.90
11855;DHT22;5987;53.140;8.904;2023-03-01T18:37:18;4.20;99.90
11855;DHT22;5987;53.140;8.904;2023-03-01T18:40:22;4.10;99.90
11855;DHT22;5987;53.140;8.904;2023-03-01T18:43:26;4.00;99.90
11855;DHT22;5987;53.140;8.904;2023-03-01T18:46:31;3.90;99.90
11855;DHT22;5987;53.140;8.904;2023-03-01T18:49:40;3.80;99.90
11855;DHT22;5987;53.140;8.904;2023-03-01T18:52:44;3.80;99.90
11855;DHT22;5987;53.140;8.904;2023-03-01T18:55:48;3.70;99.90
11855;DHT22;5987;53.140;8.904;2023-03-01T18:58:52;3.60;99.90
11855;DHT22;5987;53.140;8.904;2023-03-01T19:01:57;3.60;99.90
11855;DHT22;5987;53.140;8.904;2023-03-01T19:05:03;3.50;99.90
11855;DHT22;5987;53.140;8.904;2023-03-01T19:08:07;3.50;99.90
11855;DHT22;5987;53.140;8.904;2023-03-01T19:11:12;3.40;99.90
11855;DHT22;5987;53.140;8.904;2023-03-01T19:14:18;3.40;99.90
11855;DHT22;5987;53.140;8.904;2023-03-01T19:17:23;3.40;99.90
11855;DHT22;5987;53.140;8.904;2023-03-01T19:20:32;3.40;99.90
11855;DHT22;5987;53.140;8.904;2023-03-01T19:23:37;3.30;99.90
11855;DHT22;5987;53.140;8.904;2023-03-01T19:26:41;3.40;99.90
11855;DHT22;5987;53.140;8.904;2023-03-01T19:29:44;3.40;99.90
11855;DHT22;5987;53.140;8.904;2023-03-01T19:32:48;3.30;99.90
11855;DHT22;5987;53.140;8.904;2023-03-01T19:35:54;3.30;99.90
11855;DHT22;5987;53.140;8.904;2023-03-01T19:39:00;3.40;99.90
11855;DHT22;5987;53.140;8.904;2023-03-01T19:42:05;3.30;99.90
11855;DHT22;5987;53.140;8.904;2023-03-01T19:45:09;3.30;99.90
11855;DHT22;5987;53.140;8.904;2023-03-01T19:48:14;3.20;99.90
11855;DHT22;5987;53.140;8.904;2023-03-01T19:51:19;3.10;99.90
11855;DHT22;5987;53.140;8.904;2023-03-01T19:54:23;3.10;99.90
11855;DHT22;5987;53.140;8.904;2023-03-01T19:57:27;3.10;99.90
11855;DHT22;5987;53.140;8.904;2023-03-01T20:00:31;3.20;99.90
11855;DHT22;5987;53.140;8.904;2023-03-01T20:03:35;3.20;99.90
11855;DHT22;5987;53.140;8.904;2023-03-01T20:06:43;3.20;99.90
11855;DHT22;5987;53.140;8.904;2023-03-01T20:09:48;3.10;99.90
11855;DHT22;5987;53.140;8.904;2023-03-01T20:12:51;3.10;99.90
11855;DHT22;5987;53.140;8.904;2023-03-01T20:15:55;3.10;99.90
11855;DHT22;5987;53.140;8.904;2023-03-01T20:18:59;3.10;99.90
11855;DHT22;5987;53.140;8.904;2023-03-01T20:22:04;3.10;99.90
11855;DHT22;5987;53.140;8.904;2023-03-01T20:25:09;3.10;99.90
11855;DHT22;5987;53.140;8.904;2023-03-01T20:28:13;3.10;99.90
11855;DHT22;5987;53.140;8.904;2023-03-01T20:31:19;3.10;99.90
11855;DHT22;5987;53.140;8.904;2023-03-01T20:34:25;3.10;99.90
11855;DHT22;5987;53.140;8.904;2023-03-01T20:37:30;3.10;99.90